Other Surface Observations
Issued by NWS Great Falls, MT

Home | Current Version | Previous Version | Text Only | Print | Product List | Glossary On
Versions: 1 2 3 4 5 6 7 8 9 10 11 12 13 14 15 16 17 18 19 20 21 22 23 24 25 26 27 28 29 30 31 32 33 34 35 36 37 38 39 40 41 42 43 44 45 46 47 48 49 50
000
SXUS55 KTFX 251502
OSOTFX

AREA AWOS OBSERVATIONS
NATIONAL WEATHER SERVICE GREAT FALLS MT
0808 AM MDT Tue Jul 25 2017

METAR K6S8 251355Z AUTO 35006KT 25SM 18/01 A3013 RMK A01 T01770011
METAR K7S0 251255Z AUTO 26000KT 40SM 08/06 A3008 RMK A01 T00830055
METAR K7S1 251355Z AUTO 36007KT 40SM 16/03 A3010 RMK A01 T01610033
METAR K97M 251355Z AUTO 02013KT 40SM 20/09 A3000 RMK A01 T02000088
METAR K9S2 251355Z AUTO 29009KT 40SM 16/06 A3003 RMK A01 T01610061
METAR K9S5 251355Z AUTO 31000KT 40SM 17/04 A3012 RMK A01 T01660038
METAR KRPX 251355Z AUTO 36010KT 40SM 17/02 A3004 RMK A01 T01660016
METAR KRPX 251255Z AUTO 36007KT 40SM 16/01 A3003 RMK A01 T01610011
METAR KS34 251355Z AUTO 09000KT 40SM 12/04 A3005 RMK A01 T01220044
METAR KS34 251255Z AUTO 09000KT 25SM 08/02 A3004 RMK A01 T00830016
METAR KTHM 251255Z AUTO 23000KT 40SM 07/02 A3008 RMK A01 T00720022



USA.gov is the U.S. government's official web portal to all federal, state and local government web resources and services.